Time;durP1;ratioP1;P1;durP2;ratioP2;P2;SDS_P1;SDS_P2;PMS_P1;PMS_P2;Temp;Humidity;BMP_temperature;BMP_pressure;BME280_temperature;BME280_humidity;BME280_pressure;Samples;Min_cycle;Max_cycle;Signal;HPM_P1;HPM_P2
2022/05/29 00:02:01;;;;;;;;;0.75;0.75;;;;;12.60;49.82;101052.69;4993261;28;46154;-78
2022/05/29 00:04:26;;;;;;;;;1.00;1.00;;;;;12.62;49.63;101051.75;4975188;28;45602;-77
2022/05/29 00:06:55;;;;;;;;;1.75;1.75;;;;;12.61;50.28;101052.66;4973889;28;45404;-76
2022/05/29 00:09:31;;;;;;;;;1.00;1.00;;;;;12.58;50.12;101050.06;4974126;28;45505;-76
2022/05/29 00:11:59;;;;;;;;;2.00;2.00;;;;;12.52;50.12;101054.63;4992630;28;46175;-78
2022/05/29 00:14:25;;;;;;;;;2.00;2.00;;;;;12.51;50.17;101051.13;4991750;28;45493;-78
2022/05/29 00:16:50;;;;;;;;;2.50;2.50;;;;;12.48;50.76;101043.22;4992101;28;45461;-77
2022/05/29 00:19:16;;;;;;;;;1.00;1.00;;;;;12.38;50.36;101047.81;4992352;28;45433;-78
2022/05/29 00:21:41;;;;;;;;;1.00;1.00;;;;;12.21;50.37;101019.00;4992784;28;46324;-78
2022/05/29 00:24:08;;;;;;;;;2.25;2.25;;;;;12.33;50.76;101048.81;5001336;28;45350;-77
2022/05/29 00:26:34;;;;;;;;;1.00;1.00;;;;;12.29;50.71;101048.00;5014860;28;45293;-78
2022/05/29 00:29:00;;;;;;;;;2.50;2.00;;;;;12.29;51.00;101044.50;5014700;28;45713;-79
2022/05/29 00:31:26;;;;;;;;;1.00;1.00;;;;;12.27;51.40;101037.44;5013902;28;46161;-78
2022/05/29 00:33:51;;;;;;;;;3.75;2.75;;;;;12.31;50.88;101043.53;5010334;28;45510;-77
2022/05/29 00:36:17;;;;;;;;;1.00;1.00;;;;;12.22;51.39;101030.47;4994940;28;45490;-77
2022/05/29 00:38:45;;;;;;;;;2.00;1.00;;;;;12.22;51.48;101044.63;5011962;28;45369;-79
2022/05/29 00:41:25;;;;;;;;;0.00;0.00;;;;;12.24;51.48;101037.50;5015387;28;45535;-77
2022/05/29 00:44:21;;;;;;;;;2.00;2.00;;;;;12.24;51.10;101036.63;5011500;28;45392;-77
2022/05/29 00:46:49;;;;;;;;;1.00;1.00;;;;;12.16;51.79;101034.13;4994010;28;45352;-77
2022/05/29 00:49:19;;;;;;;;;1.75;1.75;;;;;12.13;52.38;101036.84;4995584;28;45418;-77
2022/05/29 00:51:56;;;;;;;;;3.25;1.75;;;;;12.07;51.93;101031.63;4996751;28;46333;-77
2022/05/29 00:54:23;;;;;;;;;1.00;1.00;;;;;12.06;52.00;101036.06;5001845;28;45447;-77
2022/05/29 00:56:50;;;;;;;;;2.00;2.00;;;;;12.01;52.48;101032.66;5014353;28;45562;-77
2022/05/29 00:59:21;;;;;;;;;2.75;1.00;;;;;11.97;52.37;101036.25;5011044;28;45432;-78
2022/05/29 01:01:48;;;;;;;;;3.75;2.50;;;;;11.90;52.41;101035.47;4993779;28;45409;-77
2022/05/29 01:04:13;;;;;;;;;0.00;0.00;;;;;11.73;53.16;101032.22;4995199;28;45453;-77
2022/05/29 01:06:39;;;;;;;;;2.50;1.00;;;;;11.73;53.36;101030.44;4994903;28;45423;-77
2022/05/29 01:09:07;;;;;;;;;3.25;3.25;;;;;11.74;53.28;101031.34;4997075;28;45420;-77
2022/05/29 01:11:59;;;;;;;;;1.00;1.00;;;;;11.75;53.43;101027.75;5014234;28;47009;-78
2022/05/29 01:14:33;;;;;;;;;1.00;1.00;;;;;11.70;53.38;101024.34;5007062;28;45355;-77
2022/05/29 01:17:28;;;;;;;;;1.00;1.00;;;;;11.65;53.49;101028.84;5030201;28;45481;-77
2022/05/29 01:19:59;;;;;;;;;1.25;1.25;;;;;11.64;54.13;101027.09;4966460;28;45532;-76
2022/05/29 01:22:33;;;;;;;;;1.25;1.25;;;;;11.63;53.92;101028.88;4972818;28;46342;-77
2022/05/29 01:25:39;;;;;;;;;1.00;0.00;;;;;11.60;53.64;101020.09;4971378;28;45382;-76
2022/05/29 01:28:13;;;;;;;;;2.50;0.25;;;;;11.50;54.47;101017.59;4933689;28;45410;-77
2022/05/29 01:30:49;;;;;;;;;2.50;1.00;;;;;11.49;54.37;101012.34;4913503;28;45554;-76
2022/05/29 01:33:34;;;;;;;;;2.00;2.00;;;;;11.49;54.34;101013.25;4922592;28;46419;-79
2022/05/29 01:36:22;;;;;;;;;0.75;0.75;;;;;11.37;54.71;100995.78;4933802;28;45503;-76
2022/05/29 01:39:00;;;;;;;;;1.00;1.00;;;;;11.43;54.95;101013.31;4931932;28;45579;-77
2022/05/29 01:41:34;;;;;;;;;1.00;1.00;;;;;11.36;55.46;101007.25;4933671;28;45774;-76
2022/05/29 01:44:05;;;;;;;;;1.00;1.00;;;;;11.35;55.15;101007.28;4931137;28;45500;-77
2022/05/29 01:46:33;;;;;;;;;1.75;1.75;;;;;11.34;55.41;101000.22;4933421;28;45368;-77
2022/05/29 01:49:23;;;;;;;;;1.00;1.00;;;;;11.32;55.70;101002.03;4930511;28;45515;-76
2022/05/29 01:52:04;;;;;;;;;2.00;1.00;;;;;11.27;55.94;101007.41;4916573;28;45588;-77
2022/05/29 01:54:38;;;;;;;;;1.00;1.00;;;;;11.20;56.22;100997.81;4898415;28;46363;-76
2022/05/29 01:57:35;;;;;;;;;1.25;1.25;;;;;11.13;57.06;100998.78;4925417;28;45528;-77
2022/05/29 02:00:19;;;;;;;;;2.50;1.25;;;;;11.09;57.24;101005.06;4958171;28;45517;-77
2022/05/29 02:03:18;;;;;;;;;2.00;2.00;;;;;10.99;57.67;101006.94;4926134;28;45437;-76
2022/05/29 02:05:50;;;;;;;;;1.50;1.50;;;;;10.94;58.03;101003.50;4990997;28;45447;-77
2022/05/29 02:08:26;;;;;;;;;1.00;1.00;;;;;10.59;57.46;100944.09;5004043;28;45479;-76
2022/05/29 02:11:21;;;;;;;;;1.50;1.50;;;;;10.98;58.18;100998.16;4994174;28;45484;-78
2022/05/29 02:13:46;;;;;;;;;0.75;0.75;;;;;10.95;57.46;100999.97;4992700;28;45601;-79
2022/05/29 02:16:16;;;;;;;;;3.50;2.75;;;;;10.86;58.05;101006.25;4993224;28;46205;-77
2022/05/29 02:18:51;;;;;;;;;3.00;1.00;;;;;10.81;58.13;101001.03;4995932;28;45527;-77
2022/05/29 02:21:27;;;;;;;;;1.00;1.00;;;;;10.84;58.15;100997.47;5014615;28;45482;-77
2022/05/29 02:23:58;;;;;;;;;2.25;2.25;;;;;10.81;58.39;100987.81;5014180;28;45439;-76
2022/05/29 02:26:29;;;;;;;;;1.00;1.00;;;;;10.80;58.31;101007.22;5013149;28;46247;-77
2022/05/29 02:29:02;;;;;;;;;1.00;1.00;;;;;10.84;57.83;100997.47;5011783;28;45508;-77
2022/05/29 02:31:58;;;;;;;;;2.00;2.00;;;;;10.86;58.30;100989.53;5013581;28;45514;-77
2022/05/29 02:34:35;;;;;;;;;1.00;0.25;;;;;10.83;58.43;100987.81;5012794;28;45646;-77
2022/05/29 02:37:30;;;;;;;;;1.50;0.25;;;;;10.78;58.84;100987.88;5013128;28;45394;-77
2022/05/29 02:40:16;;;;;;;;;2.75;2.00;;;;;10.73;59.39;100976.47;5001803;28;45599;-77
2022/05/29 02:42:45;;;;;;;;;3.00;1.75;;;;;10.72;59.06;100976.50;4993430;28;45415;-77
2022/05/29 02:45:32;;;;;;;;;2.50;2.50;;;;;10.68;59.16;100980.97;4993766;28;45566;-77
2022/05/29 02:48:15;;;;;;;;;3.75;1.00;;;;;10.70;59.18;100973.00;4994494;28;47528;-76
2022/05/29 02:51:10;;;;;;;;;2.00;2.00;;;;;10.70;59.42;100980.94;4998601;28;45912;-76
2022/05/29 02:53:35;;;;;;;;;2.25;1.75;;;;;10.67;59.27;100968.63;4983759;28;45391;-77
2022/05/29 02:56:05;;;;;;;;;2.50;2.50;;;;;10.66;59.32;100977.47;4994185;28;45514;-76
2022/05/29 02:58:35;;;;;;;;;1.00;1.00;;;;;10.62;59.64;100968.69;4993468;28;45988;-76
2022/05/29 03:01:33;;;;;;;;;1.00;1.00;;;;;10.57;59.90;100972.31;4989843;28;45408;-78
2022/05/29 03:03:58;;;;;;;;;1.75;1.75;;;;;10.53;59.92;100968.81;4961526;28;45542;-75
2022/05/29 03:06:49;;;;;;;;;1.00;1.00;;;;;10.48;60.72;100962.72;4978458;28;45503;-78
2022/05/29 03:09:41;;;;;;;;;2.75;2.00;;;;;10.48;60.20;100971.53;4994489;28;46574;-77
2022/05/29 03:12:23;;;;;;;;;2.50;2.50;;;;;10.39;60.52;100961.09;4993120;28;45441;-77
2022/05/29 03:14:59;;;;;;;;;3.75;2.25;;;;;10.40;60.34;100965.47;4994083;28;45392;-76
2022/05/29 03:17:37;;;;;;;;;1.25;1.25;;;;;10.40;60.98;100965.47;4984259;28;45496;-77
2022/05/29 03:20:27;;;;;;;;;2.00;2.00;;;;;10.39;61.09;100962.84;4975394;28;46208;-78
2022/05/29 03:23:28;;;;;;;;;4.00;4.00;;;;;10.34;60.78;100955.00;4975492;28;45594;-77
2022/05/29 03:26:03;;;;;;;;;3.25;1.75;;;;;10.21;60.91;100953.38;4973384;28;45512;-77
2022/05/29 03:28:40;;;;;;;;;4.00;3.00;;;;;10.25;61.35;100963.00;4977784;28;45871;-77
2022/05/29 03:31:12;;;;;;;;;3.25;3.25;;;;;10.24;61.38;100955.97;5010445;28;45404;-78
2022/05/29 03:33:42;;;;;;;;;1.75;1.75;;;;;10.20;61.47;100956.88;5014439;28;45400;-77
2022/05/29 03:36:11;;;;;;;;;3.00;3.00;;;;;10.14;61.91;100960.47;5015125;28;45578;-77
2022/05/29 03:38:37;;;;;;;;;4.25;3.25;;;;;10.18;61.36;100958.69;4996228;28;45620;-77
2022/05/29 03:41:12;;;;;;;;;2.00;2.00;;;;;10.12;61.67;100951.69;4998978;28;45453;-77
2022/05/29 03:43:38;;;;;;;;;2.00;2.00;;;;;10.08;61.82;100947.34;5035996;28;45536;-76
2022/05/29 03:46:03;;;;;;;;;1.00;1.00;;;;;10.04;62.17;100950.94;5035282;28;45449;-78
2022/05/29 03:48:30;;;;;;;;;3.75;2.50;;;;;10.00;62.20;100952.72;5016820;28;48334;-77
2022/05/29 03:50:56;;;;;;;;;2.00;1.75;;;;;10.05;62.18;100958.84;5015798;28;45645;-77
2022/05/29 03:53:22;;;;;;;;;2.00;2.00;;;;;10.02;62.15;100958.88;5013998;28;45398;-77
2022/05/29 03:55:47;;;;;;;;;2.25;2.25;;;;;9.96;62.20;100943.97;4995338;28;45457;-77
2022/05/29 03:58:13;;;;;;;;;2.00;2.00;;;;;10.01;62.59;100962.41;5004727;28;45415;-77
2022/05/29 04:00:38;;;;;;;;;2.25;2.25;;;;;9.96;62.31;100954.53;5015596;28;45429;-76
2022/05/29 04:03:04;;;;;;;;;4.00;2.00;;;;;9.98;62.37;100957.16;5015261;28;45409;-76
2022/05/29 04:05:29;;;;;;;;;2.00;2.00;;;;;10.00;62.68;100957.13;5013583;28;45458;-78
2022/05/29 04:13:28;;;;;;;;;1.25;1.25;;;;;10.34;61.37;100955.00;5013737;28;45348;-77
2022/05/29 04:15:53;;;;;;;;;1.75;1.75;;;;;10.55;61.10;100955.59;4998400;28;45362;-77
2022/05/29 04:18:21;;;;;;;;;3.00;3.00;;;;;10.62;60.63;100951.97;5013159;28;45399;-78
2022/05/29 04:20:50;;;;;;;;;3.00;1.00;;;;;10.77;60.28;100951.75;5015253;28;45565;-77
2022/05/29 04:23:16;;;;;;;;;2.00;2.00;;;;;11.02;59.72;100964.56;5014614;28;45478;-76
2022/05/29 04:25:44;;;;;;;;;1.75;1.75;;;;;11.28;58.85;100952.69;4995316;28;45438;-77
2022/05/29 04:28:09;;;;;;;;;2.75;1.75;;;;;11.67;57.69;100961.72;5010529;28;45380;-76
2022/05/29 04:30:35;;;;;;;;;0.75;0.75;;;;;12.03;56.75;100951.34;5014624;28;45425;-77
2022/05/29 04:33:00;;;;;;;;;2.50;1.50;;;;;12.29;55.86;100944.66;5015045;28;45344;-78
2022/05/29 04:35:31;;;;;;;;;1.25;1.25;;;;;12.75;54.96;100956.00;5032224;28;45329;-77
2022/05/29 04:37:57;;;;;;;;;1.75;1.75;;;;;13.12;53.96;100939.22;5007061;28;45585;-77
2022/05/29 04:40:23;;;;;;;;;2.00;2.00;;;;;13.55;52.55;100938.16;4995296;28;45376;-77
2022/05/29 04:42:49;;;;;;;;;1.25;1.25;;;;;13.94;51.02;100940.63;5000013;28;45469;-75
2022/05/29 04:45:16;;;;;;;;;1.00;1.00;;;;;14.38;50.33;100940.25;5032330;28;45259;-77
2022/05/29 04:47:42;;;;;;;;;2.75;1.50;;;;;14.71;49.61;100942.81;5011566;28;45658;-78
2022/05/29 04:50:08;;;;;;;;;2.00;1.25;;;;;14.88;48.68;100942.31;4995051;28;45509;-77
2022/05/29 04:52:34;;;;;;;;;2.00;2.00;;;;;15.14;48.43;100937.88;4999414;28;45513;-77
2022/05/29 04:55:00;;;;;;;;;2.00;1.00;;;;;15.53;46.76;100945.47;5029968;28;45471;-77
2022/05/29 04:57:25;;;;;;;;;1.50;1.50;;;;;15.77;46.31;100941.94;5008053;28;45436;-78
2022/05/29 04:59:51;;;;;;;;;1.00;1.00;;;;;16.11;45.63;100935.41;5013783;28;46302;-76
2022/05/29 05:02:16;;;;;;;;;3.25;2.00;;;;;16.46;45.15;100938.53;5014409;28;45444;-78
2022/05/29 05:04:42;;;;;;;;;5.50;2.50;;;;;16.65;44.68;100937.78;5014365;28;45540;-76
2022/05/29 05:07:07;;;;;;;;;4.50;2.25;;;;;17.14;43.48;100926.94;5007377;28;45641;-77
2022/05/29 05:09:33;;;;;;;;;2.00;2.00;;;;;17.46;42.77;100917.59;4994220;28;46107;-77
2022/05/29 05:11:58;;;;;;;;;2.00;2.00;;;;;17.76;41.90;100927.84;4994847;28;45431;-76
2022/05/29 05:14:25;;;;;;;;;2.00;2.00;;;;;18.07;41.55;100924.69;4994597;28;45655;-78
2022/05/29 05:16:53;;;;;;;;;1.00;1.00;;;;;18.45;40.53;100913.16;5000365;28;45450;-78
2022/05/29 05:19:18;;;;;;;;;3.50;1.00;;;;;18.81;39.74;100926.56;4994718;28;45462;-77
2022/05/29 05:21:45;;;;;;;;;3.25;3.00;;;;;19.35;38.85;100926.56;4994701;28;45355;-78
2022/05/29 05:24:11;;;;;;;;;5.25;2.75;;;;;19.52;38.25;100917.69;4994686;28;45446;-76
2022/05/29 05:26:37;;;;;;;;;1.50;1.50;;;;;19.45;38.47;100937.72;5000235;28;45502;-77
2022/05/29 05:29:03;;;;;;;;;3.25;2.50;;;;;19.47;37.97;100924.22;4994253;28;46689;-77
2022/05/29 05:31:30;;;;;;;;;1.00;1.00;;;;;19.92;37.68;100929.94;4993878;28;45491;-78
2022/05/29 05:33:55;;;;;;;;;1.25;1.25;;;;;20.32;36.90;100923.28;4994760;28;45510;-77
2022/05/29 05:36:21;;;;;;;;;4.00;2.00;;;;;20.49;36.28;100930.38;4995420;28;45505;-77
2022/05/29 05:38:46;;;;;;;;;2.25;2.25;;;;;20.44;36.21;100916.38;5014175;28;46305;-78
2022/05/29 05:41:13;;;;;;;;;1.75;1.75;;;;;20.28;36.23;100929.75;5014476;28;45388;-77
2022/05/29 05:43:39;;;;;;;;;2.75;2.75;;;;;20.32;36.18;100917.91;5014927;28;45604;-78
2022/05/29 05:46:13;;;;;;;;;1.00;1.00;;;;;20.77;35.99;100928.88;5015547;28;45470;-77
2022/05/29 05:48:39;;;;;;;;;2.00;2.00;;;;;21.23;34.94;100920.81;4998111;28;45412;-77
2022/05/29 05:51:05;;;;;;;;;2.00;2.00;;;;;21.51;34.20;100912.94;4992400;28;45483;-76
2022/05/29 05:53:31;;;;;;;;;1.00;1.00;;;;;21.38;34.17;100919.03;4994075;28;45451;-78
2022/05/29 05:55:56;;;;;;;;;1.25;1.25;;;;;21.19;34.61;100923.78;5008674;28;45403;-77
2022/05/29 05:58:22;;;;;;;;;1.25;1.25;;;;;21.16;34.43;100921.28;5005113;28;46167;-77
2022/05/29 06:00:49;;;;;;;;;2.25;2.00;;;;;21.31;34.59;100920.34;5012960;28;45345;-78
2022/05/29 06:03:14;;;;;;;;;4.25;2.75;;;;;21.46;33.89;100922.13;5013110;28;45341;-79
2022/05/29 06:05:40;;;;;;;;;1.00;1.00;;;;;21.65;33.85;100915.66;5011996;28;45431;-80
2022/05/29 06:08:06;;;;;;;;;2.00;2.00;;;;;21.81;33.72;100929.88;5009619;28;46540;-78
2022/05/29 06:10:31;;;;;;;;;1.75;1.75;;;;;22.33;32.60;100912.34;5014011;28;46114;-78
2022/05/29 06:13:01;;;;;;;;;0.75;0.75;;;;;22.57;32.51;100913.53;5012857;28;45476;-79
2022/05/29 06:15:32;;;;;;;;;3.00;2.00;;;;;22.74;32.36;100915.97;5013399;28;45444;-78
2022/05/29 06:17:57;;;;;;;;;2.25;2.25;;;;;22.95;31.48;100910.16;5001688;28;46120;-77
2022/05/29 06:20:24;;;;;;;;;1.00;1.00;;;;;23.23;31.57;100906.47;4993497;28;45419;-78
2022/05/29 06:22:50;;;;;;;;;3.00;2.00;;;;;23.51;30.72;100908.16;4993850;28;45443;-77
2022/05/29 06:25:17;;;;;;;;;0.00;0.00;;;;;23.84;30.22;100906.75;5004317;28;45469;-78
2022/05/29 06:27:45;;;;;;;;;1.25;1.25;;;;;24.21;29.43;100901.44;5006588;28;46251;-77
2022/05/29 06:30:13;;;;;;;;;2.00;2.00;;;;;24.26;29.72;100893.00;4996875;28;45336;-78
2022/05/29 06:32:39;;;;;;;;;1.00;1.00;;;;;24.41;29.45;100901.84;4996625;28;45474;-78
2022/05/29 06:35:07;;;;;;;;;2.00;2.00;;;;;24.54;29.15;100902.66;5008763;28;45590;-78
2022/05/29 06:37:36;;;;;;;;;1.25;1.25;;;;;24.57;28.56;100905.16;5003802;28;46899;-78
2022/05/29 06:40:02;;;;;;;;;1.00;1.00;;;;;24.04;29.22;100918.00;5017143;28;45443;-77
2022/05/29 06:42:28;;;;;;;;;2.50;1.50;;;;;23.77;29.25;100905.47;5017573;28;45521;-78
2022/05/29 06:44:53;;;;;;;;;1.75;1.00;;;;;23.39;29.83;100911.69;5016592;28;45584;-78
2022/05/29 06:47:19;;;;;;;;;1.00;1.00;;;;;22.82;30.78;100907.38;5011453;28;46175;-77
2022/05/29 06:49:48;;;;;;;;;2.00;2.00;;;;;22.48;31.48;100920.38;4997422;28;45447;-78
2022/05/29 06:52:15;;;;;;;;;4.25;1.00;;;;;21.51;32.82;100915.63;4997228;28;44782;-78
2022/05/29 06:54:41;;;;;;;;;2.00;2.00;;;;;20.88;33.53;100921.06;4997810;28;45268;-77
2022/05/29 06:57:07;;;;;;;;;0.00;0.00;;;;;21.12;33.84;100918.75;4999952;28;45501;-78
2022/05/29 07:07:54;;;;;;;;;1.00;1.00;;;;;21.51;33.00;100902.19;4996780;28;45490;-78
2022/05/29 07:10:19;;;;;;;;;1.25;1.00;;;;;22.29;32.04;100916.16;4999397;28;45495;-77
2022/05/29 07:12:45;;;;;;;;;1.25;1.25;;;;;22.36;32.16;100900.50;4997956;28;45322;-79
2022/05/29 07:15:10;;;;;;;;;2.00;1.00;;;;;22.66;30.38;100910.25;4996848;28;45352;-78
2022/05/29 07:17:36;;;;;;;;;2.00;2.00;;;;;23.14;29.88;100905.28;4994329;28;46116;-78
2022/05/29 07:20:03;;;;;;;;;2.00;2.00;;;;;23.78;29.70;100908.06;5007405;28;45466;-77
2022/05/29 07:22:32;;;;;;;;;1.25;0.75;;;;;24.02;29.13;100896.53;5004104;28;45575;-78
2022/05/29 07:24:58;;;;;;;;;1.00;1.00;;;;;24.00;29.00;100901.16;5012877;28;45406;-78
2022/05/29 07:27:24;;;;;;;;;2.00;1.00;;;;;23.81;28.90;100898.88;5015409;28;46187;-78
2022/05/29 07:29:49;;;;;;;;;1.00;1.00;;;;;23.39;27.95;100906.31;5016857;28;45380;-78
2022/05/29 07:32:15;;;;;;;;;1.00;1.00;;;;;23.43;28.60;100888.94;5015768;28;45440;-77
2022/05/29 07:34:44;;;;;;;;;0.25;0.25;;;;;23.78;28.17;100896.41;5018502;28;45581;-77
2022/05/29 07:37:12;;;;;;;;;1.00;1.00;;;;;23.51;28.72;100889.25;5010941;28;45526;-79
2022/05/29 07:39:40;;;;;;;;;0.00;0.00;;;;;23.12;28.72;100898.25;4998980;28;45288;-81
2022/05/29 07:44:52;;;;;;;;;0.75;0.75;;;;;21.74;29.28;100892.72;5014182;28;45403;-78
2022/05/29 07:47:17;;;;;;;;;0.25;0.25;;;;;21.26;30.05;100906.34;5009191;28;45842;-77
2022/05/29 07:49:44;;;;;;;;;1.00;1.00;;;;;20.80;30.72;100903.66;5014127;28;45470;-78
2022/05/29 07:52:09;;;;;;;;;2.50;1.00;;;;;19.91;31.06;100906.78;5023281;28;45418;-78
2022/05/29 07:54:38;;;;;;;;;1.00;1.00;;;;;19.80;32.33;100901.97;5033619;28;45530;-78
2022/05/29 07:57:04;;;;;;;;;1.50;1.50;;;;;19.81;32.26;100911.75;5020096;28;46513;-79
2022/05/29 07:59:29;;;;;;;;;1.00;1.00;;;;;20.08;31.99;100908.53;5017596;28;45476;-79
2022/05/29 08:01:55;;;;;;;;;1.00;1.00;;;;;20.85;30.90;100891.69;5004471;28;45294;-80
2022/05/29 08:04:21;;;;;;;;;1.25;0.75;;;;;21.25;30.00;100891.16;5014207;28;45492;-80
2022/05/29 08:06:46;;;;;;;;;0.00;0.00;;;;;20.70;29.43;100893.44;5007478;28;47626;-80
2022/05/29 08:09:12;;;;;;;;;0.75;0.75;;;;;20.25;30.66;100892.38;5008319;28;45411;-79
2022/05/29 08:11:38;;;;;;;;;1.25;0.75;;;;;19.92;30.93;100885.25;5012949;28;45412;-80
2022/05/29 08:14:05;;;;;;;;;1.00;1.00;;;;;19.54;31.82;100890.81;5034849;28;45409;-80
2022/05/29 08:16:30;;;;;;;;;0.00;0.00;;;;;19.14;31.42;100893.69;4999689;28;45552;-79
2022/05/29 08:18:56;;;;;;;;;0.00;0.00;;;;;18.80;31.85;100891.84;5006252;28;45461;-81
2022/05/29 08:21:22;;;;;;;;;1.00;1.00;;;;;18.32;32.41;100890.59;5016773;28;45430;-81
2022/05/29 08:31:59;;;;;;;;;1.25;0.25;;;;;21.27;30.38;100871.31;5014644;28;45492;-81
2022/05/29 08:34:24;;;;;;;;;1.25;1.00;;;;;22.15;28.64;100871.28;5011476;28;45449;-80
2022/05/29 08:36:50;;;;;;;;;1.75;1.75;;;;;22.69;29.02;100865.09;5010465;28;45525;-77
2022/05/29 08:39:15;;;;;;;;;0.75;0.75;;;;;23.28;27.87;100863.06;5012861;28;45433;-80
2022/05/29 08:41:50;;;;;;;;;0.25;0.25;;;;;23.94;26.55;100858.41;5010308;28;45648;-79
2022/05/29 08:44:18;;;;;;;;;1.00;1.00;;;;;24.16;26.35;100857.75;5012798;28;45809;-78
2022/05/29 08:46:52;;;;;;;;;0.75;0.75;;;;;24.57;25.88;100861.91;5012452;28;45416;-79
2022/05/29 08:49:21;;;;;;;;;0.25;0.25;;;;;25.20;25.78;100861.72;5009039;28;45575;-79
2022/05/29 08:51:55;;;;;;;;;2.00;0.00;;;;;25.83;24.97;100850.53;5009721;28;45475;-79
2022/05/29 08:54:46;;;;;;;;;2.25;1.00;;;;;26.04;24.32;100848.84;5010546;28;45490;-79
2022/05/29 08:57:29;;;;;;;;;1.00;1.00;;;;;26.35;24.61;100845.47;5011129;28;47146;-77
2022/05/29 08:59:59;;;;;;;;;2.00;0.25;;;;;26.71;24.14;100841.56;5011023;28;45558;-80
2022/05/29 09:02:52;;;;;;;;;1.00;1.00;;;;;26.79;23.62;100845.50;5019090;28;45411;-80
2022/05/29 09:05:30;;;;;;;;;0.50;0.50;;;;;25.70;24.24;100847.94;5018533;28;45395;-80
2022/05/29 09:08:01;;;;;;;;;2.50;1.50;;;;;24.75;25.15;100853.44;5015785;28;45436;-81
2022/05/29 09:10:35;;;;;;;;;0.00;0.00;;;;;23.97;26.61;100858.19;5021408;28;45421;-81
2022/05/29 09:13:03;;;;;;;;;1.00;1.00;;;;;23.69;26.76;100837.72;5033158;28;45454;-81
2022/05/29 09:15:36;;;;;;;;;0.00;0.00;;;;;24.05;27.52;100852.25;5019316;28;45437;-80
2022/05/29 09:18:11;;;;;;;;;1.00;1.00;;;;;24.09;26.63;100840.25;5026571;28;45573;-80
2022/05/29 09:20:43;;;;;;;;;1.00;1.00;;;;;24.10;25.95;100836.59;5026341;28;45494;-80
2022/05/29 09:23:17;;;;;;;;;2.00;0.50;;;;;23.47;26.37;100841.03;5010603;28;45708;-82
2022/05/29 09:25:43;;;;;;;;;0.00;0.00;;;;;23.80;25.64;100832.38;5023132;28;45361;-79
2022/05/29 09:28:17;;;;;;;;;0.25;0.00;;;;;24.07;25.46;100834.13;5015750;28;46398;-77
2022/05/29 09:30:43;;;;;;;;;0.00;0.00;;;;;24.12;25.72;100835.47;5007626;28;45674;-81
2022/05/29 09:33:25;;;;;;;;;1.00;1.00;;;;;24.57;24.01;100824.09;5007324;28;45558;-81
2022/05/29 09:36:03;;;;;;;;;0.75;0.00;;;;;24.95;25.06;100819.50;5019333;28;45533;-81
2022/05/29 09:38:39;;;;;;;;;0.00;0.00;;;;;25.21;23.46;100813.91;5022799;28;46644;-79
2022/05/29 09:41:06;;;;;;;;;3.00;1.25;;;;;24.98;24.09;100806.59;5009144;28;45557;-81
2022/05/29 09:43:32;;;;;;;;;1.00;1.00;;;;;24.79;24.35;100817.97;5021387;28;45503;-81
2022/05/29 09:46:22;;;;;;;;;1.00;1.00;;;;;25.18;23.30;100809.59;5019515;28;45636;-81
2022/05/29 09:51:44;;;;;;;;;1.00;1.00;;;;;23.73;24.57;100810.41;5014643;28;45551;-81
2022/05/29 09:54:23;;;;;;;;;0.00;0.00;;;;;23.81;24.36;100809.84;5026166;28;45459;-81
2022/05/29 09:56:48;;;;;;;;;1.00;1.00;;;;;23.70;24.22;100812.44;5035789;28;45551;-81
2022/05/29 09:59:19;;;;;;;;;1.25;1.25;;;;;23.06;25.43;100813.25;5030026;28;45501;-80
2022/05/29 10:01:49;;;;;;;;;0.00;0.00;;;;;22.67;26.88;100818.56;5012919;28;45388;-80
2022/05/29 10:04:29;;;;;;;;;1.00;1.00;;;;;23.12;25.60;100807.47;5025204;28;45593;-81
2022/05/29 10:06:58;;;;;;;;;1.00;1.00;;;;;23.43;24.91;100794.56;5003462;28;45581;-82
2022/05/29 10:09:26;;;;;;;;;1.00;0.75;;;;;23.69;25.81;100799.94;5010457;28;45513;-80
2022/05/29 10:12:14;;;;;;;;;1.50;1.00;;;;;24.10;25.51;100796.09;5017044;28;46332;-80
2022/05/29 10:14:44;;;;;;;;;1.25;0.50;;;;;24.48;24.86;100793.22;5008212;28;45523;-81
2022/05/29 10:17:16;;;;;;;;;0.50;0.50;;;;;24.72;24.42;100794.22;5014240;28;45526;-81
2022/05/29 10:19:44;;;;;;;;;0.00;0.00;;;;;24.70;24.09;100790.78;5007311;28;48560;-80
2022/05/29 10:22:37;;;;;;;;;0.25;0.25;;;;;23.94;24.62;100799.94;5032938;28;45275;-81
2022/05/29 10:25:19;;;;;;;;;1.00;1.00;;;;;23.44;25.73;100784.63;5004919;28;45696;-80
2022/05/29 10:27:48;;;;;;;;;1.00;1.00;;;;;23.21;26.90;100795.19;4994011;28;45496;-80
2022/05/29 10:30:29;;;;;;;;;0.75;0.75;;;;;23.03;26.87;100797.28;5008469;28;45445;-80
2022/05/29 10:33:03;;;;;;;;;2.00;2.00;;;;;22.27;27.12;100761.09;5007562;28;45508;-80
2022/05/29 10:35:32;;;;;;;;;2.00;1.25;;;;;22.08;28.15;100773.06;5020742;28;45590;-81
2022/05/29 10:38:14;;;;;;;;;1.00;1.00;;;;;22.32;26.74;100799.38;5007914;28;45610;-81
2022/05/29 10:40:42;;;;;;;;;1.00;1.00;;;;;22.60;26.20;100794.84;5002752;28;45494;-81
2022/05/29 10:43:08;;;;;;;;;0.00;0.00;;;;;22.77;27.41;100773.00;5004747;28;45514;-81
2022/05/29 10:45:42;;;;;;;;;1.75;0.75;;;;;23.56;26.15;100787.34;5019126;28;45502;-81
2022/05/29 10:48:37;;;;;;;;;1.00;1.00;;;;;23.88;26.43;100781.47;5010951;28;45417;-78
2022/05/29 10:51:25;;;;;;;;;0.75;0.75;;;;;23.79;25.79;100774.00;5007717;28;46192;-80
2022/05/29 10:54:12;;;;;;;;;5.00;2.00;;;;;23.35;25.93;100773.53;5008587;28;45562;-79
2022/05/29 10:57:15;;;;;;;;;2.00;2.00;;;;;22.69;25.24;100788.84;5000654;28;45534;-80
2022/05/29 11:00:04;;;;;;;;;2.00;2.00;;;;;22.35;26.40;100777.66;5007689;28;45622;-79
2022/05/29 11:06:00;;;;;;;;;4.00;2.00;;;;;21.53;27.58;100779.28;5012006;28;45536;-79
2022/05/29 11:08:34;;;;;;;;;2.00;0.75;;;;;21.14;28.69;100780.78;5002746;28;45572;-80
2022/05/29 11:11:13;;;;;;;;;1.00;1.00;;;;;20.88;27.89;100753.66;5013217;28;45361;-80
2022/05/29 11:13:54;;;;;;;;;1.00;1.00;;;;;21.01;28.76;100770.75;5008739;28;45501;-81
2022/05/29 11:16:34;;;;;;;;;1.00;1.00;;;;;20.96;28.97;100777.38;5016125;28;45469;-80
2022/05/29 11:19:25;;;;;;;;;1.50;0.00;;;;;20.75;28.56;100765.13;5010202;28;45628;-81
2022/05/29 11:22:38;;;;;;;;;1.00;1.00;;;;;20.52;29.79;100762.91;5005926;28;45474;-81
2022/05/29 11:25:06;;;;;;;;;0.00;0.00;;;;;21.41;29.13;100757.56;5004599;28;45324;-80
2022/05/29 11:27:54;;;;;;;;;0.50;0.50;;;;;22.15;28.02;100752.88;5012657;28;45551;-80
2022/05/29 11:30:30;;;;;;;;;0.75;0.75;;;;;22.34;27.54;100746.28;5032709;28;45569;-82
2022/05/29 11:33:01;;;;;;;;;3.25;2.00;;;;;22.44;28.03;100752.78;5024742;28;45649;-81
2022/05/29 11:35:48;;;;;;;;;0.25;0.00;;;;;22.31;27.02;100735.72;5017006;28;46205;-80
2022/05/29 11:38:20;;;;;;;;;2.50;2.00;;;;;21.80;27.00;100737.19;5011796;28;45470;-78
2022/05/29 11:41:05;;;;;;;;;2.00;2.00;;;;;21.58;26.95;100726.94;5007135;28;45495;-80
2022/05/29 11:43:56;;;;;;;;;1.00;1.00;;;;;21.27;28.17;100725.28;5029885;28;45404;-80
2022/05/29 11:52:41;;;;;;;;;2.00;2.00;;;;;21.51;28.55;100706.78;5012404;28;45543;-81
2022/05/29 11:55:20;;;;;;;;;1.25;0.50;;;;;21.37;27.88;100702.25;5004998;28;45613;-81
2022/05/29 11:58:11;;;;;;;;;1.00;1.00;;;;;21.12;27.97;100702.94;5020610;28;46527;-80
2022/05/29 12:00:55;;;;;;;;;2.25;1.50;;;;;20.97;28.37;100701.19;5001872;28;45494;-82
2022/05/29 12:03:43;;;;;;;;;1.00;1.00;;;;;20.84;27.47;100688.50;5020296;28;45421;-80
2022/05/29 12:06:33;;;;;;;;;2.00;2.00;;;;;20.88;28.77;100690.06;5016216;28;45470;-81
2022/05/29 12:09:16;;;;;;;;;1.00;1.00;;;;;20.94;27.00;100695.06;5022106;28;46181;-80
2022/05/29 12:11:41;;;;;;;;;1.00;1.00;;;;;21.00;27.30;100704.56;5010150;28;45496;-80
2022/05/29 12:14:21;;;;;;;;;1.00;1.00;;;;;20.86;26.88;100685.72;5022774;28;45574;-80
2022/05/29 12:16:52;;;;;;;;;1.00;1.00;;;;;20.56;26.02;100690.16;5028249;28;45486;-83
2022/05/29 12:19:25;;;;;;;;;0.00;0.00;;;;;20.45;27.35;100691.75;5016943;28;45533;-82
2022/05/29 12:21:59;;;;;;;;;1.00;1.00;;;;;20.41;27.38;100689.25;5014647;28;45320;-81
2022/05/29 12:24:28;;;;;;;;;1.00;1.00;;;;;20.61;27.14;100686.34;5012842;28;45412;-80
2022/05/29 12:27:15;;;;;;;;;2.50;2.00;;;;;20.66;27.10;100679.75;5011272;28;45467;-78